LIEE

Cagliari Elmas Airport

Cagliari, Italy
TAF LIEE 251100Z 2512/2612 07012KT 9999 FEW030 TEMPO 2512/2515 SHRA
Issued Valid From Valid To
Sep-25 @ 11:00 UTC
(5 hours ago)
Sep-25 @ 12:00 UTC
(4 hours ago)
Sep-26 @ 12:00 UTC
(in 20 hours)
Sep-25 @ 12:00 to Sep-26 @ 12:00
TAF LIEE 251100Z 2512/2612 07012KT 9999 FEW030
Wind Visibility Clouds
70° at 12 knots 10,000+ meters
  • Few at 3,000' AGL
Expired Click to View Sep-25 @ 12:00 to Sep-25 @ 15:00
TEMPO 2512/2515 SHRA
Conditions
  • Rain
TAF LIEE 251100Z 2512/2612 07012KT 9999 FEW030 TEMPO 2512/2515 SHRA
Issued Sep-25 @ 11:00 UTC
(5 hours ago)
Valid From Sep-25 @ 12:00 UTC
(4 hours ago)
Valid To Sep-26 @ 12:00 UTC
(in 20 hours)
Sep-25 @ 12:00 - Sep-26 @ 12:00
Wind Visibility
70° at 12 knots 10,000+ meters
Clouds
  • Few at 3,000' AGL
Sep-25 @ 12:00 - Sep-25 @ 15:00
Conditions
  • Rain